createdAt,value
2019-05-05T00:00:39.564Z,97442.55
2019-05-05T00:03:21.671Z,97437.41
2019-05-05T00:05:50.583Z,97443.38
2019-05-05T00:08:19.608Z,97451.22
2019-05-05T00:10:57.251Z,97445.58
2019-05-05T00:13:36.183Z,97449.17
2019-05-05T00:16:16.527Z,97445.34
2019-05-05T00:18:45.536Z,97449.63
2019-05-05T00:21:15.093Z,97449.64
2019-05-05T00:23:45.096Z,97448.59
2019-05-05T00:26:14.915Z,97449.09
2019-05-05T00:28:44.784Z,97439.34
2019-05-05T00:31:15.030Z,97440.28
2019-05-05T00:33:44.900Z,97436.55
2019-05-05T00:36:14.550Z,97432.76
2019-05-05T00:38:44.510Z,97433.63
2019-05-05T00:41:14.828Z,97444.53
2019-05-05T00:43:45.148Z,97437.80
2019-05-05T00:46:20.213Z,97441.84
2019-05-05T00:48:57.567Z,97446.58
2019-05-05T00:51:26.224Z,97445.28
2019-05-05T00:53:55.476Z,97449.80
2019-05-05T00:56:25.102Z,97452.28
2019-05-05T00:58:58.196Z,97449.23
2019-05-05T01:01:51.587Z,97462.04
2019-05-05T01:04:25.376Z,97467.23
2019-05-05T01:06:54.460Z,97466.72
2019-05-05T01:09:25.191Z,97470.90
2019-05-05T01:11:55.017Z,97474.42
2019-05-05T01:14:24.954Z,97474.21
2019-05-05T01:16:54.631Z,97472.94
2019-05-05T01:19:24.293Z,97474.28
2019-05-05T01:21:54.425Z,97473.66
2019-05-05T01:24:24.883Z,97469.00
2019-05-05T01:26:55.080Z,97479.11
2019-05-05T01:29:25.235Z,97479.59
2019-05-05T01:31:55.211Z,97483.09
2019-05-05T01:34:28.771Z,97480.53
2019-05-05T01:37:04.784Z,97492.72
2019-05-05T01:39:51.027Z,97495.34
2019-05-05T01:42:19.662Z,97499.97
2019-05-05T01:44:48.370Z,97505.19
2019-05-05T01:47:17.392Z,97500.04
2019-05-05T01:49:46.029Z,97502.25
2019-05-05T01:52:15.014Z,97498.14
2019-05-05T01:54:44.994Z,97494.55
2019-05-05T01:57:14.779Z,97494.89
2019-05-05T01:59:44.750Z,97500.48
2019-05-05T02:02:14.620Z,97498.59
2019-05-05T02:04:44.782Z,97506.18
2019-05-05T02:07:14.477Z,97508.14
2019-05-05T02:09:44.901Z,97519.63
2019-05-05T02:12:15.779Z,97524.00
2019-05-05T02:14:44.621Z,97524.58
2019-05-05T02:17:14.421Z,97528.34
2019-05-05T02:19:44.373Z,97528.94
2019-05-05T02:22:14.669Z,97528.03
2019-05-05T02:24:44.406Z,97525.69
2019-05-05T02:27:14.603Z,97523.11
2019-05-05T02:29:51.651Z,97528.25
2019-05-05T02:32:29.781Z,97519.07
2019-05-05T02:34:59.407Z,97521.21
2019-05-05T02:37:28.124Z,97518.30
2019-05-05T02:40:02.718Z,97523.78
2019-05-05T02:42:27.631Z,97519.16
2019-05-05T02:44:56.895Z,97520.06
2019-05-05T02:47:35.021Z,97509.88
2019-05-05T02:50:05.545Z,97513.81
2019-05-05T02:52:35.558Z,97510.39
2019-05-05T02:55:04.639Z,97511.09
2019-05-05T02:57:34.647Z,97513.51
2019-05-05T03:00:25.755Z,97500.66
2019-05-05T03:02:55.277Z,97500.17
2019-05-05T03:05:23.919Z,97505.73
2019-05-05T03:07:54.328Z,97505.06
2019-05-05T03:10:24.608Z,97498.23
2019-05-05T03:12:54.384Z,97505.33
2019-05-05T03:15:28.438Z,97512.61
2019-05-05T03:17:57.086Z,97512.55
2019-05-05T03:20:25.715Z,97526.38
2019-05-05T03:22:54.378Z,97534.70
2019-05-05T03:25:24.163Z,97532.87
2019-05-05T03:27:54.468Z,97537.28
2019-05-05T03:30:26.112Z,97546.33
2019-05-05T03:32:55.864Z,97558.75
2019-05-05T03:35:24.851Z,97557.09
2019-05-05T03:37:54.475Z,97560.28
2019-05-05T03:40:27.543Z,97568.94
2019-05-05T03:43:00.661Z,97569.91
2019-05-05T03:45:46.207Z,97574.19
2019-05-05T03:48:14.845Z,97577.68
2019-05-05T03:50:44.622Z,97584.66
2019-05-05T03:53:14.006Z,97584.47
2019-05-05T03:55:43.933Z,97597.36
2019-05-05T03:58:14.516Z,97601.76
2019-05-05T04:01:11.567Z,97599.33
2019-05-05T04:03:40.247Z,97610.28
2019-05-05T04:06:08.900Z,97613.64
2019-05-05T04:08:37.546Z,97609.96
2019-05-05T04:11:06.239Z,97623.42
2019-05-05T04:13:35.962Z,97633.08
2019-05-05T04:16:28.822Z,97630.28
2019-05-05T04:19:01.116Z,97628.37
2019-05-05T04:21:33.698Z,97634.98
2019-05-05T04:24:00.215Z,97633.83
2019-05-05T04:26:29.223Z,97633.49
2019-05-05T04:28:57.884Z,97632.94
2019-05-05T04:31:26.868Z,97638.13
2019-05-05T04:33:55.533Z,97644.08
2019-05-05T04:36:24.179Z,97647.50
2019-05-05T04:38:54.560Z,97649.70
2019-05-05T04:41:24.548Z,97650.44
2019-05-05T04:43:54.820Z,97662.77
2019-05-05T04:46:24.528Z,97657.11
2019-05-05T04:49:04.146Z,97659.52
2019-05-05T04:51:47.008Z,97660.92
2019-05-05T04:54:15.932Z,97665.03
2019-05-05T04:56:44.859Z,97666.67
2019-05-05T04:59:14.408Z,97665.80
2019-05-05T05:01:44.020Z,97669.58
2019-05-05T05:04:37.067Z,97675.45
2019-05-05T05:07:05.874Z,97676.91
2019-05-05T05:09:34.518Z,97678.70
2019-05-05T05:12:04.033Z,97685.14
2019-05-05T05:14:33.758Z,97677.88
2019-05-05T05:17:05.097Z,97687.53
2019-05-05T05:19:33.730Z,97684.05
2019-05-05T05:22:04.926Z,97687.09
2019-05-05T05:24:34.618Z,97687.64
2019-05-05T05:27:05.053Z,97689.78
2019-05-05T05:29:34.586Z,97687.47
2019-05-05T05:32:04.183Z,97694.38
2019-05-05T05:34:34.437Z,97695.34
2019-05-05T05:37:04.212Z,97704.63
2019-05-05T05:39:45.013Z,97704.39
2019-05-05T05:42:13.811Z,97708.92
2019-05-05T05:45:10.736Z,97717.22
2019-05-05T05:47:57.147Z,97712.27
2019-05-05T05:50:33.911Z,97720.94
2019-05-05T05:53:04.688Z,97723.39
2019-05-05T05:55:34.283Z,97726.84
2019-05-05T05:58:04.861Z,97724.84
2019-05-05T06:00:34.404Z,97726.92
2019-05-05T06:03:04.057Z,97734.78
2019-05-05T06:05:34.435Z,97740.95
2019-05-05T06:08:04.743Z,97743.27
2019-05-05T06:10:33.971Z,97744.44
2019-05-05T06:13:04.262Z,97752.91
2019-05-05T06:15:34.140Z,97751.79
2019-05-05T06:18:04.646Z,97749.70
2019-05-05T06:20:34.453Z,97753.01
2019-05-05T06:23:04.202Z,97747.69
2019-05-05T06:25:34.243Z,97752.98
2019-05-05T06:28:04.381Z,97749.92
2019-05-05T06:30:33.793Z,97748.88
2019-05-05T06:33:04.879Z,97751.16
2019-05-05T06:35:53.688Z,97750.00
2019-05-05T06:38:24.214Z,97754.25
2019-05-05T06:41:07.490Z,97748.78
2019-05-05T06:44:10.172Z,97756.55
2019-05-05T06:46:57.884Z,97753.69
2019-05-05T06:49:26.607Z,97757.50
2019-05-05T06:51:56.246Z,97764.12
2019-05-05T06:54:25.001Z,97759.59
2019-05-05T06:56:53.928Z,97765.38
2019-05-05T06:59:24.340Z,97764.20
2019-05-05T07:01:53.660Z,97773.52
2019-05-05T07:04:24.380Z,97769.13
2019-05-05T07:06:56.281Z,97774.15
2019-05-05T07:09:24.444Z,97775.13
2019-05-05T07:11:54.234Z,97774.78
2019-05-05T07:14:23.686Z,97764.04
2019-05-05T07:16:54.363Z,97762.47
2019-05-05T07:19:23.935Z,97762.69
2019-05-05T07:21:53.918Z,97775.59
2019-05-05T07:24:23.898Z,97780.59
2019-05-05T07:26:54.113Z,97772.19
2019-05-05T07:29:26.029Z,97775.48
2019-05-05T07:31:55.026Z,97775.33
2019-05-05T07:34:28.200Z,97778.11
2019-05-05T07:37:00.127Z,97776.65
2019-05-05T07:39:34.139Z,97776.61
2019-05-05T07:42:05.465Z,97778.11
2019-05-05T07:44:39.280Z,97791.67
2019-05-05T07:47:09.847Z,97785.99
2019-05-05T07:49:44.031Z,97787.16
2019-05-05T07:52:18.729Z,97784.02
2019-05-05T07:54:50.722Z,97792.50
2019-05-05T07:57:24.983Z,97795.02
2019-05-05T08:00:01.590Z,97790.77
2019-05-05T08:02:33.918Z,97797.89
2019-05-05T08:05:04.704Z,97807.51
2019-05-05T08:07:35.615Z,97807.95
2019-05-05T08:10:06.322Z,97810.75
2019-05-05T08:12:36.901Z,97811.00
2019-05-05T08:15:07.883Z,97805.59
2019-05-05T08:18:10.639Z,97811.44
2019-05-05T08:20:44.486Z,97822.68
2019-05-05T08:23:31.841Z,97827.06
2019-05-05T08:26:06.102Z,97824.05
2019-05-05T08:29:04.540Z,97818.37
2019-05-05T08:31:50.822Z,97823.23
2019-05-05T08:34:21.857Z,97831.13
2019-05-05T08:36:53.840Z,97821.66
2019-05-05T08:39:24.368Z,97820.61
2019-05-05T08:41:53.845Z,97816.11
2019-05-05T08:44:23.656Z,97831.18
2019-05-05T08:46:53.784Z,97830.77
2019-05-05T08:49:24.451Z,97821.91
2019-05-05T08:51:54.703Z,97831.07
2019-05-05T08:54:23.906Z,97831.93
2019-05-05T08:56:54.819Z,97825.55
2019-05-05T08:59:24.209Z,97825.62
2019-05-05T09:01:54.164Z,97822.16
2019-05-05T09:04:24.666Z,97819.42
2019-05-05T09:06:54.600Z,97808.27
2019-05-05T09:09:24.154Z,97809.00
2019-05-05T09:11:54.240Z,97814.86
2019-05-05T09:14:24.002Z,97808.83
2019-05-05T09:16:53.715Z,97809.55
2019-05-05T09:19:23.979Z,97820.27
2019-05-05T09:21:54.121Z,97812.63
2019-05-05T09:24:34.283Z,97812.73
2019-05-05T09:27:07.518Z,97805.16
2019-05-05T09:29:38.431Z,97806.16
2019-05-05T09:32:07.168Z,97809.52
2019-05-05T09:34:35.813Z,97813.17
2019-05-05T09:37:05.254Z,97808.47
2019-05-05T09:39:34.609Z,97815.98
2019-05-05T09:42:04.098Z,97806.33
2019-05-05T09:44:34.597Z,97802.49
2019-05-05T09:47:04.747Z,97806.54
2019-05-05T09:49:35.010Z,97805.61
2019-05-05T09:52:05.204Z,97799.55
2019-05-05T09:54:34.542Z,97788.91
2019-05-05T09:57:04.503Z,97792.73
2019-05-05T09:59:34.639Z,97797.16
2019-05-05T10:02:04.408Z,97797.87
2019-05-05T10:04:34.557Z,97807.27
2019-05-05T10:07:04.402Z,97801.81
2019-05-05T10:09:34.500Z,97797.83
2019-05-05T10:12:04.715Z,97797.80
2019-05-05T10:14:34.229Z,97797.18
2019-05-05T10:17:04.897Z,97788.17
2019-05-05T10:19:34.638Z,97792.59
2019-05-05T10:22:04.066Z,97792.66
2019-05-05T10:24:49.139Z,97801.24
2019-05-05T10:27:18.985Z,97800.92
2019-05-05T10:29:47.715Z,97792.88
2019-05-05T10:32:18.334Z,97786.70
2019-05-05T10:35:00.375Z,97790.89
2019-05-05T10:37:29.451Z,97793.70
2019-05-05T10:39:58.324Z,97792.83
2019-05-05T10:42:46.069Z,97788.89
2019-05-05T10:45:14.852Z,97788.89
2019-05-05T10:47:44.057Z,97786.50
2019-05-05T10:50:13.884Z,97775.01
2019-05-05T10:52:44.268Z,97768.58
2019-05-05T10:55:14.563Z,97762.52
2019-05-05T10:57:43.916Z,97765.81
2019-05-05T11:00:15.489Z,97763.64
2019-05-05T11:02:43.440Z,97766.48
2019-05-05T11:05:12.590Z,97772.17
2019-05-05T11:07:41.617Z,97779.39
2019-05-05T11:10:10.377Z,97793.13
2019-05-05T11:12:39.211Z,97803.14
2019-05-05T11:15:07.936Z,97806.57
2019-05-05T11:17:36.583Z,97800.75
2019-05-05T11:20:06.124Z,97792.14
2019-05-05T11:22:35.859Z,97793.20
2019-05-05T11:25:05.862Z,97791.01
2019-05-05T11:27:34.821Z,97781.13
2019-05-05T11:30:20.834Z,97771.16
2019-05-05T11:33:07.288Z,97775.53
2019-05-05T11:35:53.893Z,97774.22
2019-05-05T11:38:24.583Z,97775.29
2019-05-05T11:40:54.680Z,97775.70
2019-05-05T11:43:24.645Z,97772.12
2019-05-05T11:45:54.451Z,97768.63
2019-05-05T11:48:24.058Z,97773.03
2019-05-05T11:50:54.241Z,97776.55
2019-05-05T11:53:25.147Z,97790.84
2019-05-05T11:55:55.127Z,97803.16
2019-05-05T11:58:25.101Z,97813.98
2019-05-05T12:00:54.605Z,97822.06
2019-05-05T12:03:23.505Z,97824.38
2019-05-05T12:05:52.220Z,97822.32
2019-05-05T12:08:21.026Z,97818.34
2019-05-05T12:11:08.916Z,97825.11
2019-05-05T12:13:37.699Z,97824.15
2019-05-05T12:16:08.138Z,97815.19
2019-05-05T12:18:36.871Z,97812.13
2019-05-05T12:21:06.392Z,97817.03
2019-05-05T12:23:35.266Z,97809.63
2019-05-05T12:26:24.391Z,97807.05
2019-05-05T12:28:56.444Z,97801.09
2019-05-05T12:31:27.037Z,97801.62
2019-05-05T12:33:55.780Z,97797.09
2019-05-05T12:36:24.500Z,97795.97
2019-05-05T12:38:54.704Z,97800.13
2019-05-05T12:41:23.992Z,97802.43
2019-05-05T12:43:54.821Z,97801.22
2019-05-05T12:46:34.614Z,97806.52
2019-05-05T12:49:04.875Z,97805.31
2019-05-05T12:51:34.332Z,97796.94
2019-05-05T12:54:04.522Z,97791.33
2019-05-05T12:56:34.127Z,97788.72
2019-05-05T12:59:07.467Z,97784.91
2019-05-05T13:01:37.778Z,97795.56
2019-05-05T13:04:06.576Z,97807.73
2019-05-05T13:06:37.012Z,97817.86
2019-05-05T13:09:06.937Z,97812.89
2019-05-05T13:11:40.180Z,97812.92
2019-05-05T13:14:08.879Z,97807.02
2019-05-05T13:16:37.538Z,97805.03
2019-05-05T13:19:12.219Z,97809.48
2019-05-05T13:22:03.660Z,97807.97
2019-05-05T13:25:01.673Z,97820.02
2019-05-05T13:27:34.806Z,97818.66
2019-05-05T13:30:06.024Z,97831.31
2019-05-05T13:32:35.925Z,97824.55
2019-05-05T13:35:07.293Z,97833.50
2019-05-05T13:37:38.237Z,97831.89
2019-05-05T13:40:08.618Z,97843.55
2019-05-05T13:42:38.449Z,97841.93
2019-05-05T13:45:20.265Z,97838.50
2019-05-05T13:47:50.267Z,97841.67
2019-05-05T13:50:27.598Z,97839.44
2019-05-05T13:52:57.463Z,97834.27
2019-05-05T13:55:27.135Z,97838.05
2019-05-05T13:57:57.095Z,97838.26
2019-05-05T14:00:27.027Z,97841.12
2019-05-05T14:02:56.947Z,97842.67
2019-05-05T14:05:26.676Z,97833.02
2019-05-05T14:07:56.857Z,97832.52
2019-05-05T14:10:26.958Z,97833.76
2019-05-05T14:12:57.846Z,97839.92
2019-05-05T14:15:27.972Z,97840.39
2019-05-05T14:17:58.295Z,97845.33
2019-05-05T14:20:28.099Z,97843.86
2019-05-05T14:22:58.076Z,97845.07
2019-05-05T14:25:29.528Z,97839.62
2019-05-05T14:28:01.115Z,97840.88
2019-05-05T14:31:05.551Z,97840.88
2019-05-05T14:33:54.297Z,97846.48
2019-05-05T14:36:37.791Z,97840.14
2019-05-05T14:39:09.443Z,97843.53
2019-05-05T14:41:40.816Z,97848.44
2019-05-05T14:44:10.561Z,97842.66
2019-05-05T14:46:40.210Z,97843.40
2019-05-05T14:49:10.023Z,97845.92
2019-05-05T14:51:39.763Z,97843.23
2019-05-05T14:54:10.853Z,97849.97
2019-05-05T14:56:43.884Z,97843.23
2019-05-05T14:59:14.229Z,97846.82
2019-05-05T15:01:44.927Z,97845.77
2019-05-05T15:04:16.501Z,97843.00
2019-05-05T15:06:50.703Z,97843.41
2019-05-05T15:09:29.343Z,97837.44
2019-05-05T15:12:18.440Z,97836.14
2019-05-05T15:14:48.121Z,97841.38
2019-05-05T15:17:17.923Z,97837.55
2019-05-05T15:19:48.000Z,97839.77
2019-05-05T15:22:18.004Z,97840.41
2019-05-05T15:24:48.736Z,97843.50
2019-05-05T15:27:18.523Z,97839.72
2019-05-05T15:29:48.372Z,97846.31
2019-05-05T15:32:18.681Z,97850.73
2019-05-05T15:34:48.421Z,97853.19
2019-05-05T15:37:18.498Z,97862.55
2019-05-05T15:39:48.358Z,97865.21
2019-05-05T15:42:18.081Z,97867.81
2019-05-05T15:44:47.850Z,97871.00
2019-05-05T15:47:17.676Z,97870.25
2019-05-05T15:49:47.340Z,97877.75
2019-05-05T15:52:20.072Z,97883.77
2019-05-05T15:54:49.454Z,97874.66
2019-05-05T15:57:19.729Z,97863.62
2019-05-05T15:59:48.531Z,97863.92
2019-05-05T16:02:17.172Z,97860.00
2019-05-05T16:04:45.947Z,97863.27
2019-05-05T16:07:14.925Z,97863.19
2019-05-05T16:09:46.731Z,97859.97
2019-05-05T16:12:15.095Z,97855.67
2019-05-05T16:14:58.764Z,97856.84
2019-05-05T16:17:34.147Z,97861.79
2019-05-05T16:20:13.894Z,97851.70
2019-05-05T16:22:46.738Z,97856.28
2019-05-05T16:25:16.198Z,97845.30
2019-05-05T16:27:45.214Z,97845.25
2019-05-05T16:30:15.075Z,97850.18
2019-05-05T16:32:43.788Z,97856.11
2019-05-05T16:35:14.365Z,97846.92
2019-05-05T16:37:43.137Z,97855.11
2019-05-05T16:40:14.274Z,97854.62
2019-05-05T16:42:43.698Z,97855.45
2019-05-05T16:45:13.686Z,97862.61
2019-05-05T16:47:44.815Z,97856.09
2019-05-05T16:50:13.693Z,97854.97
2019-05-05T16:52:51.642Z,97860.19
2019-05-05T16:55:44.779Z,97856.66
2019-05-05T16:58:13.920Z,97858.47
2019-05-05T17:00:44.154Z,97860.78
2019-05-05T17:03:13.487Z,97854.86
2019-05-05T17:05:44.034Z,97847.97
2019-05-05T17:08:15.071Z,97850.56
2019-05-05T17:10:44.133Z,97854.42
2019-05-05T17:13:19.724Z,97856.55
2019-05-05T17:16:06.659Z,97852.80
2019-05-05T17:18:55.209Z,97853.77
2019-05-05T17:21:28.079Z,97859.19
2019-05-05T17:23:56.826Z,97860.91
2019-05-05T17:26:25.493Z,97861.58
2019-05-05T17:28:54.224Z,97859.58
2019-05-05T17:31:24.371Z,97866.75
2019-05-05T17:33:53.570Z,97857.81
2019-05-05T17:36:24.149Z,97861.78
2019-05-05T17:38:54.343Z,97864.95
2019-05-05T17:41:36.248Z,97871.53
2019-05-05T17:44:14.076Z,97880.34
2019-05-05T17:46:53.824Z,97880.08
2019-05-05T17:49:37.937Z,97879.80
2019-05-05T17:52:24.892Z,97881.22
2019-05-05T17:54:56.462Z,97880.13
2019-05-05T17:57:26.168Z,97880.78
2019-05-05T17:59:54.816Z,97884.08
2019-05-05T18:02:23.712Z,97887.00
2019-05-05T18:04:54.083Z,97889.63
2019-05-05T18:07:40.399Z,97887.03
2019-05-05T18:10:13.607Z,97887.60
2019-05-05T18:13:19.531Z,97899.07
2019-05-05T18:15:57.075Z,97896.70
2019-05-05T18:18:25.732Z,97907.01
2019-05-05T18:20:54.392Z,97908.22
2019-05-05T18:23:23.487Z,97905.92
2019-05-05T18:25:54.711Z,97908.86
2019-05-05T18:28:24.687Z,97908.73
2019-05-05T18:30:53.987Z,97915.06
2019-05-05T18:33:24.537Z,97915.94
2019-05-05T18:35:54.024Z,97926.01
2019-05-05T18:38:23.621Z,97925.19
2019-05-05T18:40:53.416Z,97933.42
2019-05-05T18:43:30.366Z,97933.70
2019-05-05T18:46:04.549Z,97938.91
2019-05-05T18:48:34.488Z,97936.27
2019-05-05T18:51:03.925Z,97942.37
2019-05-05T18:53:34.139Z,97942.05
2019-05-05T18:56:03.762Z,97944.50
2019-05-05T18:58:34.163Z,97942.98
2019-05-05T19:01:13.923Z,97952.52
2019-05-05T19:04:13.752Z,97952.98
2019-05-05T19:06:48.213Z,97956.06
2019-05-05T19:09:19.860Z,97956.23
2019-05-05T19:11:48.503Z,97962.03
2019-05-05T19:14:17.139Z,97967.33
2019-05-05T19:16:45.783Z,97963.76
2019-05-05T19:19:14.795Z,97967.66
2019-05-05T19:21:46.765Z,97971.31
2019-05-05T19:24:15.743Z,97967.89
2019-05-05T19:26:44.393Z,97977.03
2019-05-05T19:29:13.575Z,97977.89
2019-05-05T19:31:43.824Z,97974.01
2019-05-05T19:34:14.571Z,97976.95
2019-05-05T19:36:44.923Z,97981.19
2019-05-05T19:39:13.834Z,97986.67
2019-05-05T19:41:46.563Z,97979.55
2019-05-05T19:44:14.673Z,97976.28
2019-05-05T19:46:49.408Z,97981.52
2019-05-05T19:49:18.735Z,97982.22
2019-05-05T19:51:48.765Z,97981.49
2019-05-05T19:54:17.466Z,97983.78
2019-05-05T19:56:46.884Z,97982.56
2019-05-05T19:59:15.535Z,97978.16
2019-05-05T20:01:45.067Z,97979.28
2019-05-05T20:04:14.655Z,97985.27
2019-05-05T20:06:44.182Z,97985.27
2019-05-05T20:09:14.364Z,97978.12
2019-05-05T20:11:43.873Z,97983.18
2019-05-05T20:14:14.845Z,97983.41
2019-05-05T20:17:04.270Z,97988.30
2019-05-05T20:19:36.800Z,97988.96
2019-05-05T20:22:05.559Z,97994.48
2019-05-05T20:24:34.195Z,97989.53
2019-05-05T20:27:04.535Z,97994.03
2019-05-05T20:29:36.756Z,97994.22
2019-05-05T20:32:04.385Z,97992.54
2019-05-05T20:34:54.052Z,97996.32
2019-05-05T20:37:26.859Z,97992.98
2019-05-05T20:39:56.341Z,97991.40
2019-05-05T20:42:24.983Z,97990.37
2019-05-05T20:44:54.444Z,97986.63
2019-05-05T20:47:24.203Z,97987.36
2019-05-05T20:49:53.942Z,97982.77
2019-05-05T20:52:23.696Z,97990.20
2019-05-05T20:54:53.731Z,97986.84
2019-05-05T20:57:22.623Z,97990.21
2019-05-05T20:59:51.349Z,97996.05
2019-05-05T21:02:20.030Z,97993.08
2019-05-05T21:04:48.766Z,97995.08
2019-05-05T21:07:18.099Z,97988.06
2019-05-05T21:09:46.776Z,97985.33
2019-05-05T21:12:15.424Z,97984.61
2019-05-05T21:14:44.689Z,97983.25
2019-05-05T21:17:13.747Z,97988.06
2019-05-05T21:19:42.655Z,97991.55
2019-05-05T21:22:29.543Z,97992.62
2019-05-05T21:24:58.567Z,97994.77
2019-05-05T21:27:27.215Z,97992.10
2019-05-05T21:29:55.865Z,97990.50
2019-05-05T21:32:25.402Z,97984.70
2019-05-05T21:34:54.404Z,97996.56
2019-05-05T21:37:24.940Z,97998.23
2019-05-05T21:39:55.137Z,97993.05
2019-05-05T21:42:24.198Z,97995.25
2019-05-05T21:44:53.906Z,98003.04
2019-05-05T21:47:23.974Z,97992.18
2019-05-05T21:49:54.243Z,97995.58
2019-05-05T21:52:30.562Z,97994.45
2019-05-05T21:55:17.335Z,97985.73
2019-05-05T21:58:04.343Z,97980.54
2019-05-05T22:00:52.074Z,97983.95
2019-05-05T22:03:34.767Z,97986.32
2019-05-05T22:06:04.890Z,97987.58
2019-05-05T22:08:35.044Z,97983.13
2019-05-05T22:11:04.289Z,97986.22
2019-05-05T22:13:36.208Z,97991.97
2019-05-05T22:16:04.032Z,97990.72
2019-05-05T22:18:33.174Z,97989.13
2019-05-05T22:21:10.160Z,97988.87
2019-05-05T22:23:38.804Z,98001.25
2019-05-05T22:26:08.407Z,97993.62
2019-05-05T22:28:37.067Z,97996.98
2019-05-05T22:31:05.699Z,97989.84
2019-05-05T22:33:34.336Z,97991.78
2019-05-05T22:36:04.478Z,97994.58
2019-05-05T22:38:33.919Z,97993.83
2019-05-05T22:41:02.960Z,97983.34
2019-05-05T22:43:31.611Z,97989.08
2019-05-05T22:46:00.251Z,97981.86
2019-05-05T22:48:28.901Z,97978.12
2019-05-05T22:50:57.531Z,97984.69
2019-05-05T22:53:26.670Z,97981.50
2019-05-05T22:55:56.563Z,97988.62
2019-05-05T22:58:25.541Z,97982.23
2019-05-05T23:00:54.890Z,97979.41
2019-05-05T23:03:37.475Z,97976.87
2019-05-05T23:06:09.701Z,97985.07
2019-05-05T23:08:38.344Z,97986.83
2019-05-05T23:11:06.984Z,97988.05
2019-05-05T23:13:35.620Z,97992.21
2019-05-05T23:16:14.679Z,97994.90
2019-05-05T23:18:44.293Z,97995.99
2019-05-05T23:21:19.518Z,97990.22
2019-05-05T23:23:56.271Z,97992.70
2019-05-05T23:26:26.233Z,97992.19
2019-05-05T23:28:54.940Z,97993.31
2019-05-05T23:31:24.102Z,97992.26
2019-05-05T23:33:54.720Z,97984.45
2019-05-05T23:36:24.207Z,97988.48
2019-05-05T23:38:54.884Z,97983.66
2019-05-05T23:41:23.904Z,97988.78
2019-05-05T23:43:54.466Z,97985.22
2019-05-05T23:46:24.143Z,97993.86
2019-05-05T23:48:54.513Z,97985.32
2019-05-05T23:51:24.271Z,97982.19
2019-05-05T23:53:54.980Z,97991.67
2019-05-05T23:56:24.569Z,97987.89
2019-05-05T23:58:55.011Z,97985.81
